Orwell — V7KG8 — position and weather

sailwx.info

Track history (hours):
 
Tides and Currents Weather Stations Pressure Air Temp Water Temp Dewpoint Dewpoint Depression Visibility Wind Speed Wind Dir Waves Ship Positions

Orwell

Last reported at 2017-Oct-19 05:36 UTC. Time now 2017-Nov-19 12:44 UTC.
Position N 27°18' W 121°05'.
Warning: this ship's position is 31 days out of date.

Length 183 m; draft 11.2 m.

Type: Tanker. MMSI: 538006161.

Date/timePositionNaut miles runAvg speedWind from/ knotsBaromVisibWave heightAir tempDewpointWater temp
2017-Oct-19 05:36N 27°18' W 121°05'113.2
2017-Oct-19 05:30N 27°20' W 121°06'613.2
2017-Oct-19 05:01N 27°25' W 121°10'713.3
2017-Oct-19 04:31N 27°31' W 121°14'713.3
2017-Oct-19 04:01N 27°37' W 121°18'713.5
2017-Oct-19 03:30N 27°42' W 121°22'713.4
2017-Oct-19 03:00N 27°48' W 121°25'713.3
2017-Oct-19 02:31N 27°54' W 121°29'2313.6
2017-Oct-19 00:47N 28°14' W 121°43'413.7
2017-Oct-19 00:31N 28°17' W 121°45'2913.6
2017-Oct-18 22:21N 28°42' W 122°02'2213.5
2017-Oct-18 20:43N 29°01' W 122°16'313.5
2017-Oct-18 20:30N 29°03' W 122°18'713.5
2017-Oct-18 20:00N 29°09' W 122°22'713.4
2017-Oct-18 19:29N 29°15' W 122°27'510.4
2017-Oct-18 19:00N 29°19' W 122°30'1 1.6
2017-Oct-18 18:30N 29°19' W 122°29'0 0.5
2017-Oct-18 17:56N 29°20' W 122°29'0 0.5
2017-Oct-18 17:30N 29°20' W 122°29'0 0.3
2017-Oct-18 17:00N 29°20' W 122°29'18 8.9
2017-Oct-18 15:00N 29°36' W 122°39'2713.4
2017-Oct-18 12:59N 29°59' W 122°55'613.3
2017-Oct-18 12:30N 30°04' W 122°59'2813.5
2017-Oct-18 10:26N 30°28' W 123°16'613.6
2017-Oct-18 09:59N 30°33' W 123°19'713.4
2017-Oct-18 09:29N 30°39' W 123°23'713.2
2017-Oct-18 08:57N 30°45' W 123°27'3213.3
2017-Oct-18 06:32N 31°13' W 123°47'013.6
2017-Oct-18 06:30N 31°13' W 123°47'1113.1
2017-Oct-18 05:39N 31°23' W 123°54'213.1
2017-Oct-18 05:30N 31°24' W 123°55'1413.0
2017-Oct-18 04:24N 31°37' W 124°04'14813.3
2017-Oct-17 17:19N 33°43' W 125°34'613.2
2017-Oct-17 16:51N 33°49' W 125°38'513.0
2017-Oct-17 16:30N 33°53' W 125°40'1213.1
2017-Oct-17 15:33N 34°03' W 125°48'113.0
2017-Oct-17 15:29N 34°04' W 125°49'613.1
2017-Oct-17 15:00N 34°09' W 125°53'612.8
2017-Oct-17 14:30N 34°15' W 125°57'713.1
2017-Oct-17 13:57N 34°21' W 126°01'613.1
2017-Oct-17 13:30N 34°26' W 126°05'913.0
2017-Oct-17 12:47N 34°34' W 126°11'413.0
2017-Oct-17 12:30N 34°37' W 126°13'713.0
2017-Oct-17 12:00N 34°43' W 126°17'713.0
2017-Oct-17 11:30N 34°48' W 126°21'1013.0
2017-Oct-17 10:44N 34°57' W 126°28'  
2017-Oct-14 11:21N 48°17' W 125°17'1211.8
2017-Oct-14 10:23N 48°26' W 125°06'612.2
2017-Oct-14 09:55N 48°30' W 125°00'613.5
2017-Oct-14 09:30N 48°31' W 124°52'713.7
2017-Oct-14 09:00N 48°30' W 124°42'713.8
2017-Oct-14 08:30N 48°27' W 124°32'613.2
2017-Oct-14 08:01N 48°25' W 124°23'713.6
2017-Oct-14 07:31N 48°22' W 124°14'713.2
2017-Oct-14 06:59N 48°20' W 124°04'612.8
2017-Oct-14 06:31N 48°17' W 123°55'713.0
2017-Oct-14 05:58N 48°16' W 123°45'613.0
2017-Oct-14 05:30N 48°15' W 123°36'612.2
2017-Oct-14 05:01N 48°13' W 123°27'5 9.3
2017-Oct-14 04:31N 48°10' W 123°23'2 4.4
2017-Oct-14 04:00N 48°09' W 123°20'713.6
2017-Oct-14 03:30N 48°14' W 123°12'713.6
2017-Oct-14 03:00N 48°18' W 123°04'713.4
2017-Oct-14 02:31N 48°21' W 122°56'713.6
2017-Oct-14 02:00N 48°25' W 122°47'611.7
2017-Oct-14 01:30N 48°31' W 122°45'611.9
2017-Oct-14 01:00N 48°37' W 122°45'510.9
2017-Oct-14 00:30N 48°42' W 122°45'610.2
2017-Oct-13 23:53N 48°49' W 122°46'3 7.9
2017-Oct-13 23:31N 48°51' W 122°46'0 0.0
2017-Oct-12 08:41N 48°52' W 122°46'0 0.0
2017-Oct-12 08:30N 48°52' W 122°46'1 2.0
2017-Oct-12 08:00N 48°51' W 122°45'2 4.9
2017-Oct-12 07:30N 48°48' W 122°45'611.8
2017-Oct-12 07:00N 48°43' W 122°44'612.4
2017-Oct-12 06:30N 48°38' W 122°38'4 7.7
2017-Oct-12 06:01N 48°36' W 122°33'0 0.2
2017-Oct-12 05:29N 48°36' W 122°33'0 0.0
2017-Oct-12 04:59N 48°36' W 122°33'0 0.1
2017-Oct-12 04:23N 48°36' W 122°33'0 0.0
2017-Oct-12 03:59N 48°36' W 122°33'0 0.1
2017-Oct-12 03:23N 48°36' W 122°33'0 0.1
2017-Oct-12 02:59N 48°36' W 122°32'0 0.1
2017-Oct-12 02:29N 48°36' W 122°33'0 0.0
2017-Oct-12 01:59N 48°36' W 122°33'0 0.1
2017-Oct-12 01:14N 48°36' W 122°33'0 0.0
2017-Oct-12 00:35N 48°36' W 122°33'0 0.0
2017-Oct-12 00:29N 48°36' W 122°33'0 0.0
2017-Oct-11 23:59N 48°36' W 122°33'0 0.0
2017-Oct-11 23:23N 48°36' W 122°33'0 0.0
2017-Oct-11 22:11N 48°36' W 122°33'0 0.1
2017-Oct-11 21:38N 48°36' W 122°33'0 0.3
2017-Oct-11 21:29N 48°36' W 122°32'0 0.1
2017-Oct-11 20:59N 48°36' W 122°33'0 0.0
2017-Oct-11 19:47N 48°36' W 122°33'0 0.0
2017-Oct-11 19:17N 48°36' W 122°33'0 0.3
2017-Oct-11 18:53N 48°36' W 122°33'0 0.1
2017-Oct-11 17:50N 48°36' W 122°33'0 0.1
2017-Oct-11 17:29N 48°36' W 122°33'0 0.1
2017-Oct-11 16:59N 48°36' W 122°33'0 0.0
2017-Oct-10 23:59N 48°36' W 122°32'0 0.0
2017-Oct-10 23:23N 48°36' W 122°32'0 0.0
2017-Oct-10 22:29N 48°36' W 122°32'0 0.0
2017-Oct-10 21:59N 48°36' W 122°32'0 0.0
2017-Oct-10 21:29N 48°36' W 122°32'0 0.0
2017-Oct-10 20:59N 48°36' W 122°32'0 0.0
2017-Oct-10 20:29N 48°36' W 122°32'0 0.1
2017-Oct-10 19:59N 48°36' W 122°32'0 0.1
2017-Oct-10 19:29N 48°36' W 122°32'0 0.1
2017-Oct-10 18:59N 48°36' W 122°32'0 0.1
2017-Oct-10 18:29N 48°36' W 122°32'0 0.1
2017-Oct-10 17:59N 48°36' W 122°32'0 0.1
2017-Oct-10 17:29N 48°36' W 122°32'0 0.1
2017-Oct-10 16:53N 48°36' W 122°33'0 0.2
2017-Oct-10 16:29N 48°36' W 122°33'0 0.0
2017-Oct-10 15:59N 48°36' W 122°33'0 0.0
2017-Oct-10 15:29N 48°36' W 122°33'0 0.1
2017-Oct-10 14:59N 48°36' W 122°33'0 0.0
2017-Oct-10 13:59N 48°36' W 122°33'0 0.0
2017-Oct-10 13:29N 48°36' W 122°33'0 0.1
2017-Oct-10 12:59N 48°36' W 122°32'0 0.0
2017-Oct-10 12:29N 48°36' W 122°32'0 0.1
2017-Oct-10 11:59N 48°36' W 122°33'0 0.0
2017-Oct-10 11:29N 48°36' W 122°33'0 0.1
2017-Oct-10 10:56N 48°36' W 122°33'0 0.1
2017-Oct-10 10:29N 48°36' W 122°33'0 0.0
2017-Oct-10 09:53N 48°36' W 122°33'0 0.0
2017-Oct-10 07:32N 48°36' W 122°33'0 0.0
2017-Oct-10 07:20N 48°36' W 122°33'0 0.0
2017-Oct-10 06:59N 48°36' W 122°33'0 0.0
2017-Oct-10 06:29N 48°36' W 122°33'0 0.0
2017-Oct-10 05:59N 48°36' W 122°33'0 0.1
2017-Oct-10 05:29N 48°36' W 122°33'0 0.2
2017-Oct-10 04:59N 48°36' W 122°32'0 0.1
2017-Oct-10 04:29N 48°36' W 122°32'0 0.1
2017-Oct-10 03:59N 48°36' W 122°32'0 0.0
2017-Oct-10 03:29N 48°36' W 122°32'0 0.1
2017-Oct-10 02:41N 48°36' W 122°32'0 0.1
2017-Oct-10 02:29N 48°36' W 122°32'0 0.1
2017-Oct-10 01:59N 48°36' W 122°32'0 0.0
2017-Oct-10 01:29N 48°36' W 122°32'0 0.0
2017-Oct-10 00:59N 48°36' W 122°32'0 0.0
2017-Oct-10 00:23N 48°36' W 122°32'0 0.1
2017-Oct-09 23:53N 48°36' W 122°32'0 0.1
2017-Oct-09 23:29N 48°36' W 122°32'0 0.1
2017-Oct-09 22:53N 48°36' W 122°32'0 0.1
2017-Oct-09 22:29N 48°36' W 122°33'0 0.0
2017-Oct-09 21:59N 48°36' W 122°33'0 0.0
2017-Oct-09 21:29N 48°36' W 122°33'0 0.0
2017-Oct-09 18:29N 48°36' W 122°33'0 0.1
2017-Oct-09 17:59N 48°36' W 122°33'0 0.0
2017-Oct-09 17:29N 48°36' W 122°33'0 0.1
2017-Oct-09 16:59N 48°36' W 122°33'0 0.1
2017-Oct-09 16:29N 48°36' W 122°33'0 0.1
2017-Oct-09 15:59N 48°36' W 122°33'0 0.1
2017-Oct-09 15:29N 48°36' W 122°33'0 0.1
2017-Oct-09 14:44N 48°36' W 122°33'0 0.0
2017-Oct-09 14:29N 48°36' W 122°33'0 0.1
2017-Oct-09 13:59N 48°36' W 122°32'0 0.0
2017-Oct-09 13:29N 48°36' W 122°32'0 0.0
2017-Oct-09 12:59N 48°36' W 122°32'0 0.1
2017-Oct-09 12:29N 48°36' W 122°33'0 0.1
2017-Oct-09 11:59N 48°36' W 122°32'0 0.0
2017-Oct-09 11:26N 48°36' W 122°32'0 0.0
2017-Oct-09 10:59N 48°36' W 122°32'0 0.1
2017-Oct-09 10:23N 48°36' W 122°33'0 0.1
2017-Oct-09 09:50N 48°36' W 122°33'0 0.0
2017-Oct-09 08:59N 48°36' W 122°33'0 0.0
2017-Oct-09 08:26N 48°36' W 122°33'0 0.1
2017-Oct-09 07:53N 48°36' W 122°33'0 0.2
2017-Oct-09 07:29N 48°36' W 122°33'0 0.0
2017-Oct-09 06:59N 48°36' W 122°33'0 0.0
2017-Oct-09 06:29N 48°36' W 122°33'0 0.0
2017-Oct-09 05:59N 48°36' W 122°33'  
Track history (hours):
 
Tides and Currents Weather Stations Pressure Air Temp Water Temp Dewpoint Dewpoint Depression Visibility Wind Speed Wind Dir Waves Ship Positions

Orwell

Last reported at 2017-Oct-19 05:36 UTC. Time now 2017-Nov-19 12:44 UTC.
Position N 27°18' W 121°05'.
Warning: this ship's position is 31 days out of date.

Length 183 m; draft 11.2 m.

Type: Tanker. MMSI: 538006161.

Date/timePositionNaut miles runAvg speedWind from/ knotsBaromVisibWave heightAir tempDewpointWater temp
2017-Oct-19 05:36N 27°18' W 121°05'113.2
2017-Oct-19 05:30N 27°20' W 121°06'613.2
2017-Oct-19 05:01N 27°25' W 121°10'713.3
2017-Oct-19 04:31N 27°31' W 121°14'713.3
2017-Oct-19 04:01N 27°37' W 121°18'713.5
2017-Oct-19 03:30N 27°42' W 121°22'713.4
2017-Oct-19 03:00N 27°48' W 121°25'713.3
2017-Oct-19 02:31N 27°54' W 121°29'2313.6
2017-Oct-19 00:47N 28°14' W 121°43'413.7
2017-Oct-19 00:31N 28°17' W 121°45'2913.6
2017-Oct-18 22:21N 28°42' W 122°02'2213.5
2017-Oct-18 20:43N 29°01' W 122°16'313.5
2017-Oct-18 20:30N 29°03' W 122°18'713.5
2017-Oct-18 20:00N 29°09' W 122°22'713.4
2017-Oct-18 19:29N 29°15' W 122°27'510.4
2017-Oct-18 19:00N 29°19' W 122°30'1 1.6
2017-Oct-18 18:30N 29°19' W 122°29'0 0.5
2017-Oct-18 17:56N 29°20' W 122°29'0 0.5
2017-Oct-18 17:30N 29°20' W 122°29'0 0.3
2017-Oct-18 17:00N 29°20' W 122°29'18 8.9
2017-Oct-18 15:00N 29°36' W 122°39'2713.4
2017-Oct-18 12:59N 29°59' W 122°55'613.3
2017-Oct-18 12:30N 30°04' W 122°59'2813.5
2017-Oct-18 10:26N 30°28' W 123°16'613.6
2017-Oct-18 09:59N 30°33' W 123°19'713.4
2017-Oct-18 09:29N 30°39' W 123°23'713.2
2017-Oct-18 08:57N 30°45' W 123°27'3213.3
2017-Oct-18 06:32N 31°13' W 123°47'013.6
2017-Oct-18 06:30N 31°13' W 123°47'1113.1
2017-Oct-18 05:39N 31°23' W 123°54'213.1
2017-Oct-18 05:30N 31°24' W 123°55'1413.0
2017-Oct-18 04:24N 31°37' W 124°04'14813.3
2017-Oct-17 17:19N 33°43' W 125°34'613.2
2017-Oct-17 16:51N 33°49' W 125°38'513.0
2017-Oct-17 16:30N 33°53' W 125°40'1213.1
2017-Oct-17 15:33N 34°03' W 125°48'113.0
2017-Oct-17 15:29N 34°04' W 125°49'613.1
2017-Oct-17 15:00N 34°09' W 125°53'612.8
2017-Oct-17 14:30N 34°15' W 125°57'713.1
2017-Oct-17 13:57N 34°21' W 126°01'613.1
2017-Oct-17 13:30N 34°26' W 126°05'913.0
2017-Oct-17 12:47N 34°34' W 126°11'413.0
2017-Oct-17 12:30N 34°37' W 126°13'713.0
2017-Oct-17 12:00N 34°43' W 126°17'713.0
2017-Oct-17 11:30N 34°48' W 126°21'1013.0
2017-Oct-17 10:44N 34°57' W 126°28'  
2017-Oct-14 11:21N 48°17' W 125°17'1211.8
2017-Oct-14 10:23N 48°26' W 125°06'612.2
2017-Oct-14 09:55N 48°30' W 125°00'613.5
2017-Oct-14 09:30N 48°31' W 124°52'713.7
2017-Oct-14 09:00N 48°30' W 124°42'713.8
2017-Oct-14 08:30N 48°27' W 124°32'613.2
2017-Oct-14 08:01N 48°25' W 124°23'713.6
2017-Oct-14 07:31N 48°22' W 124°14'713.2
2017-Oct-14 06:59N 48°20' W 124°04'612.8
2017-Oct-14 06:31N 48°17' W 123°55'713.0
2017-Oct-14 05:58N 48°16' W 123°45'613.0
2017-Oct-14 05:30N 48°15' W 123°36'612.2
2017-Oct-14 05:01N 48°13' W 123°27'5 9.3
2017-Oct-14 04:31N 48°10' W 123°23'2 4.4
2017-Oct-14 04:00N 48°09' W 123°20'713.6
2017-Oct-14 03:30N 48°14' W 123°12'713.6
2017-Oct-14 03:00N 48°18' W 123°04'713.4
2017-Oct-14 02:31N 48°21' W 122°56'713.6
2017-Oct-14 02:00N 48°25' W 122°47'611.7
2017-Oct-14 01:30N 48°31' W 122°45'611.9
2017-Oct-14 01:00N 48°37' W 122°45'510.9
2017-Oct-14 00:30N 48°42' W 122°45'610.2
2017-Oct-13 23:53N 48°49' W 122°46'3 7.9
2017-Oct-13 23:31N 48°51' W 122°46'0 0.0
2017-Oct-12 08:41N 48°52' W 122°46'0 0.0
2017-Oct-12 08:30N 48°52' W 122°46'1 2.0
2017-Oct-12 08:00N 48°51' W 122°45'2 4.9
2017-Oct-12 07:30N 48°48' W 122°45'611.8
2017-Oct-12 07:00N 48°43' W 122°44'612.4
2017-Oct-12 06:30N 48°38' W 122°38'4 7.7
2017-Oct-12 06:01N 48°36' W 122°33'0 0.2
2017-Oct-12 05:29N 48°36' W 122°33'0 0.0
2017-Oct-12 04:59N 48°36' W 122°33'0 0.1
2017-Oct-12 04:23N 48°36' W 122°33'0 0.0
2017-Oct-12 03:59N 48°36' W 122°33'0 0.1
2017-Oct-12 03:23N 48°36' W 122°33'0 0.1
2017-Oct-12 02:59N 48°36' W 122°32'0 0.1
2017-Oct-12 02:29N 48°36' W 122°33'0 0.0
2017-Oct-12 01:59N 48°36' W 122°33'0 0.1
2017-Oct-12 01:14N 48°36' W 122°33'0 0.0
2017-Oct-12 00:35N 48°36' W 122°33'0 0.0
2017-Oct-12 00:29N 48°36' W 122°33'0 0.0
2017-Oct-11 23:59N 48°36' W 122°33'0 0.0
2017-Oct-11 23:23N 48°36' W 122°33'0 0.0
2017-Oct-11 22:11N 48°36' W 122°33'0 0.1
2017-Oct-11 21:38N 48°36' W 122°33'0 0.3
2017-Oct-11 21:29N 48°36' W 122°32'0 0.1
2017-Oct-11 20:59N 48°36' W 122°33'0 0.0
2017-Oct-11 19:47N 48°36' W 122°33'0 0.0
2017-Oct-11 19:17N 48°36' W 122°33'0 0.3
2017-Oct-11 18:53N 48°36' W 122°33'0 0.1
2017-Oct-11 17:50N 48°36' W 122°33'0 0.1
2017-Oct-11 17:29N 48°36' W 122°33'0 0.1
2017-Oct-11 16:59N 48°36' W 122°33'0 0.0
2017-Oct-10 23:59N 48°36' W 122°32'0 0.0
2017-Oct-10 23:23N 48°36' W 122°32'0 0.0
2017-Oct-10 22:29N 48°36' W 122°32'0 0.0
2017-Oct-10 21:59N 48°36' W 122°32'0 0.0
2017-Oct-10 21:29N 48°36' W 122°32'0 0.0
2017-Oct-10 20:59N 48°36' W 122°32'0 0.0
2017-Oct-10 20:29N 48°36' W 122°32'0 0.1
2017-Oct-10 19:59N 48°36' W 122°32'0 0.1
2017-Oct-10 19:29N 48°36' W 122°32'0 0.1
2017-Oct-10 18:59N 48°36' W 122°32'0 0.1
2017-Oct-10 18:29N 48°36' W 122°32'0 0.1
2017-Oct-10 17:59N 48°36' W 122°32'0 0.1
2017-Oct-10 17:29N 48°36' W 122°32'0 0.1
2017-Oct-10 16:53N 48°36' W 122°33'0 0.2
2017-Oct-10 16:29N 48°36' W 122°33'0 0.0
2017-Oct-10 15:59N 48°36' W 122°33'0 0.0
2017-Oct-10 15:29N 48°36' W 122°33'0 0.1
2017-Oct-10 14:59N 48°36' W 122°33'0 0.0
2017-Oct-10 13:59N 48°36' W 122°33'0 0.0
2017-Oct-10 13:29N 48°36' W 122°33'0 0.1
2017-Oct-10 12:59N 48°36' W 122°32'0 0.0
2017-Oct-10 12:29N 48°36' W 122°32'0 0.1
2017-Oct-10 11:59N 48°36' W 122°33'0 0.0
2017-Oct-10 11:29N 48°36' W 122°33'0 0.1
2017-Oct-10 10:56N 48°36' W 122°33'0 0.1
2017-Oct-10 10:29N 48°36' W 122°33'0 0.0
2017-Oct-10 09:53N 48°36' W 122°33'0 0.0
2017-Oct-10 07:32N 48°36' W 122°33'0 0.0
2017-Oct-10 07:20N 48°36' W 122°33'0 0.0
2017-Oct-10 06:59N 48°36' W 122°33'0 0.0
2017-Oct-10 06:29N 48°36' W 122°33'0 0.0
2017-Oct-10 05:59N 48°36' W 122°33'0 0.1
2017-Oct-10 05:29N 48°36' W 122°33'0 0.2
2017-Oct-10 04:59N 48°36' W 122°32'0 0.1
2017-Oct-10 04:29N 48°36' W 122°32'0 0.1
2017-Oct-10 03:59N 48°36' W 122°32'0 0.0
2017-Oct-10 03:29N 48°36' W 122°32'0 0.1
2017-Oct-10 02:41N 48°36' W 122°32'0 0.1
2017-Oct-10 02:29N 48°36' W 122°32'0 0.1
2017-Oct-10 01:59N 48°36' W 122°32'0 0.0
2017-Oct-10 01:29N 48°36' W 122°32'0 0.0
2017-Oct-10 00:59N 48°36' W 122°32'0 0.0
2017-Oct-10 00:23N 48°36' W 122°32'0 0.1
2017-Oct-09 23:53N 48°36' W 122°32'0 0.1
2017-Oct-09 23:29N 48°36' W 122°32'0 0.1
2017-Oct-09 22:53N 48°36' W 122°32'0 0.1
2017-Oct-09 22:29N 48°36' W 122°33'0 0.0
2017-Oct-09 21:59N 48°36' W 122°33'0 0.0
2017-Oct-09 21:29N 48°36' W 122°33'0 0.0
2017-Oct-09 18:29N 48°36' W 122°33'0 0.1
2017-Oct-09 17:59N 48°36' W 122°33'0 0.0
2017-Oct-09 17:29N 48°36' W 122°33'0 0.1
2017-Oct-09 16:59N 48°36' W 122°33'0 0.1
2017-Oct-09 16:29N 48°36' W 122°33'0 0.1
2017-Oct-09 15:59N 48°36' W 122°33'0 0.1
2017-Oct-09 15:29N 48°36' W 122°33'0 0.1
2017-Oct-09 14:44N 48°36' W 122°33'0 0.0
2017-Oct-09 14:29N 48°36' W 122°33'0 0.1
2017-Oct-09 13:59N 48°36' W 122°32'0 0.0
2017-Oct-09 13:29N 48°36' W 122°32'0 0.0
2017-Oct-09 12:59N 48°36' W 122°32'0 0.1
2017-Oct-09 12:29N 48°36' W 122°33'0 0.1
2017-Oct-09 11:59N 48°36' W 122°32'0 0.0
2017-Oct-09 11:26N 48°36' W 122°32'0 0.0
2017-Oct-09 10:59N 48°36' W 122°32'0 0.1
2017-Oct-09 10:23N 48°36' W 122°33'0 0.1
2017-Oct-09 09:50N 48°36' W 122°33'0 0.0
2017-Oct-09 08:59N 48°36' W 122°33'0 0.0
2017-Oct-09 08:26N 48°36' W 122°33'0 0.1
2017-Oct-09 07:53N 48°36' W 122°33'0 0.2
2017-Oct-09 07:29N 48°36' W 122°33'0 0.0
2017-Oct-09 06:59N 48°36' W 122°33'0 0.0
2017-Oct-09 06:29N 48°36' W 122°33'0 0.0
2017-Oct-09 05:59N 48°36' W 122°33'  

Dump ship's entire track history